KCNM/CNM METAR and TAF weather

Enter ICAO airport designator
Station Type Date Time Source
KCNM METAR 2021/03/05 13:53 UTC NOAA

KCNM 051353Z AUTO 08005KT CLR 05/M05 A3018 RMK AO2 SLP199 T00501050


Station Type Date Time Source
KCNM Decoded METAR 2021/03/05 13:53 UTC NOAA

CARLSBAD CAVERN CITY, NM, United States (KCNM) 32-20N 104-16W 985M
Mar 05, 2021 - 08:53 AM EST / 2021.03.05 1353 UTC
Wind: from the E (080 degrees) at 6 MPH (5 KT):0
Sky conditions: clear
Temperature: 41.0 F (5.0 C)
Dew Point: 23.0 F (-5.0 C)
Relative Humidity: 48%
Pressure (altimeter): 30.18 in. Hg (1022 hPa)
ob: KCNM 051353Z AUTO 08005KT CLR 05/M05 A3018 RMK AO2 SLP199 T00501050
cycle: 14

Station Type Date Time Source
KCNM TAF 2021/03/05 12:42 UTC NOAA

TAF KCNM 051140Z 0512/0612 31011KT P6SM SKC
FM051500 33022G32KT P6SM SKC
FM051900 01020G30KT P6SM FEW250
FM060100 36010KT P6SM FEW150

Example: see airport list